Time;durP1;ratioP1;P1;durP2;ratioP2;P2;SDS_P1;SDS_P2;PMS_P1;PMS_P2;Temp;Humidity;BMP_temperature;BMP_pressure;BME280_temperature;BME280_humidity;BME280_pressure;Samples;Min_cycle;Max_cycle;Signal;HPM_P1;HPM_P2
2023/03/20 00:01:56;;;;;;;37.97;20.17;;;7.80;99.90;;;;;;5015896;28;20626;-78
2023/03/20 00:04:24;;;;;;;39.73;19.80;;;7.80;99.90;;;;;;5009492;28;20230;-80
2023/03/20 00:06:54;;;;;;;40.67;20.07;;;7.80;99.90;;;;;;5020168;28;20256;-76
2023/03/20 00:09:21;;;;;;;38.70;20.00;;;7.90;99.90;;;;;;5022073;28;20211;-77
2023/03/20 00:11:50;;;;;;;37.17;19.23;;;7.80;99.90;;;;;;5019003;28;20195;-77
2023/03/20 00:14:19;;;;;;;37.90;19.73;;;7.80;99.90;;;;;;5015562;28;20192;-79
2023/03/20 00:16:47;;;;;;;39.57;19.67;;;7.80;99.90;;;;;;5032772;28;20615;-78
2023/03/20 00:19:28;;;;;;;40.77;20.73;;;7.70;99.90;;;;;;5014246;28;20267;-78
2023/03/20 00:21:55;;;;;;;38.50;19.40;;;7.70;99.90;;;;;;5032243;28;20206;-77
2023/03/20 00:24:22;;;;;;;39.03;19.33;;;7.70;99.90;;;;;;5014951;28;20214;-80
2023/03/20 00:26:51;;;;;;;42.57;21.07;;;7.60;99.90;;;;;;5027061;28;20245;-77
2023/03/20 00:29:25;;;;;;;42.23;20.23;;;7.60;99.90;;;;;;5034392;28;20260;-79
2023/03/20 00:31:53;;;;;;;41.70;19.60;;;7.60;99.90;;;;;;5034178;28;20217;-74
2023/03/20 00:34:22;;;;;;;42.50;20.47;;;7.60;99.90;;;;;;5033991;28;20199;-78
2023/03/20 00:36:50;;;;;;;43.73;21.13;;;7.60;99.90;;;;;;5050623;28;20205;-79
2023/03/20 00:39:17;;;;;;;42.17;20.90;;;7.60;99.90;;;;;;5033718;28;20672;-76
2023/03/20 00:41:49;;;;;;;41.53;20.30;;;7.60;99.90;;;;;;5034168;28;20213;-76
2023/03/20 00:44:34;;;;;;;44.67;22.00;;;7.50;99.90;;;;;;5051530;28;20182;-73
2023/03/20 00:47:17;;;;;;;44.13;22.20;;;7.50;99.90;;;;;;5050281;28;20222;-77
2023/03/20 00:49:47;;;;;;;40.63;20.83;;;7.50;99.90;;;;;;5014024;28;20196;-78
2023/03/20 00:52:14;;;;;;;46.43;23.13;;;7.50;99.90;;;;;;5031584;28;20245;-72
2023/03/20 00:54:41;;;;;;;42.60;21.57;;;7.40;99.90;;;;;;5013956;28;20203;-73
2023/03/20 00:57:14;;;;;;;39.67;21.50;;;7.30;99.90;;;;;;5013951;28;20200;-73
2023/03/20 01:00:19;;;;;;;47.80;23.00;;;7.30;99.90;;;;;;5031798;28;20210;-77
2023/03/20 01:02:46;;;;;;;43.20;22.13;;;7.30;99.90;;;;;;5032182;28;20521;-76
2023/03/20 01:05:13;;;;;;;43.77;23.27;;;7.30;99.90;;;;;;5021586;28;20202;-72
2023/03/20 01:07:40;;;;;;;44.17;22.07;;;7.20;99.90;;;;;;5032829;28;20243;-76
2023/03/20 01:10:08;;;;;;;45.40;22.80;;;7.10;99.90;;;;;;5051711;28;20197;-74
2023/03/20 01:12:36;;;;;;;44.57;22.37;;;7.00;99.90;;;;;;5050815;28;20266;-72
2023/03/20 01:15:24;;;;;;;46.77;23.07;;;7.00;99.90;;;;;;5034143;28;20194;-74
2023/03/20 01:17:51;;;;;;;42.13;22.47;;;7.00;99.90;;;;;;5032901;28;20195;-72
2023/03/20 01:20:23;;;;;;;43.80;22.23;;;7.00;99.90;;;;;;5033274;28;20657;-72
2023/03/20 01:22:50;;;;;;;46.13;22.50;;;6.90;99.90;;;;;;5051355;28;20190;-73
2023/03/20 01:25:17;;;;;;;38.93;21.43;;;6.90;99.90;;;;;;5049035;28;20253;-75
2023/03/20 01:27:47;;;;;;;45.47;22.90;;;6.80;99.90;;;;;;5044746;28;20201;-72
2023/03/20 01:30:30;;;;;;;43.23;21.57;;;6.80;99.90;;;;;;5032519;28;20198;-74
2023/03/20 01:32:58;;;;;;;41.73;21.07;;;6.70;99.90;;;;;;5033690;28;20297;-74
2023/03/20 01:35:26;;;;;;;40.33;20.90;;;6.70;99.90;;;;;;5051156;28;20229;-76
2023/03/20 01:37:55;;;;;;;44.70;21.70;;;6.60;99.90;;;;;;5046831;28;20194;-71
2023/03/20 01:40:31;;;;;;;45.47;21.43;;;6.60;99.90;;;;;;5016553;28;20202;-72
2023/03/20 01:43:01;;;;;;;41.50;22.43;;;6.60;99.90;;;;;;5033599;28;20220;-71
2023/03/20 01:45:34;;;;;;;45.57;21.43;;;6.60;99.90;;;;;;5050788;28;20211;-71
2023/03/20 01:48:15;;;;;;;44.80;21.27;;;6.60;99.90;;;;;;5033195;28;20207;-73
2023/03/20 01:50:42;;;;;;;41.73;21.20;;;6.50;99.90;;;;;;5033143;28;20199;-71
2023/03/20 01:53:16;;;;;;;44.43;22.80;;;6.50;99.90;;;;;;5050873;28;20194;-71
2023/03/20 01:55:45;;;;;;;39.00;20.77;;;6.50;99.90;;;;;;5032650;28;20203;-72
2023/03/20 01:58:18;;;;;;;43.13;21.23;;;6.50;99.90;;;;;;5051038;28;20197;-72
2023/03/20 02:00:47;;;;;;;43.60;21.37;;;6.50;99.90;;;;;;5051102;28;20195;-71
2023/03/20 02:03:15;;;;;;;42.10;21.57;;;6.50;99.90;;;;;;5033285;28;20268;-75
2023/03/20 02:05:43;;;;;;;43.13;21.20;;;6.60;99.90;;;;;;5033016;28;20225;-73
2023/03/20 02:08:29;;;;;;;42.90;20.97;;;6.60;99.90;;;;;;5033079;28;20207;-73
2023/03/20 02:10:59;;;;;;;40.70;19.30;;;6.50;99.90;;;;;;5050934;28;20653;-74
2023/03/20 02:13:28;;;;;;;39.40;20.23;;;6.50;99.90;;;;;;5050845;28;20209;-74
2023/03/20 02:16:07;;;;;;;42.33;21.37;;;6.60;99.90;;;;;;5033223;28;20210;-74
2023/03/20 02:18:35;;;;;;;37.43;19.67;;;6.70;99.90;;;;;;5051035;28;20201;-73
2023/03/20 02:21:27;;;;;;;38.53;20.37;;;6.70;99.90;;;;;;5033037;28;20206;-75
2023/03/20 02:24:15;;;;;;;44.40;20.73;;;6.70;99.90;;;;;;5051069;28;20202;-73
2023/03/20 02:27:16;;;;;;;40.10;21.03;;;6.70;99.90;;;;;;5035824;28;20234;-73
2023/03/20 02:30:34;;;;;;;40.57;20.20;;;6.80;99.90;;;;;;5036627;28;20202;-75
2023/03/20 02:33:34;;;;;;;41.40;19.83;;;6.90;99.90;;;;;;4953823;29;20218;-74
2023/03/20 02:36:27;;;;;;;37.23;19.37;;;6.90;99.90;;;;;;4937534;29;20201;-74
2023/03/20 02:39:22;;;;;;;43.50;20.67;;;6.80;99.90;;;;;;4937722;29;20205;-74
2023/03/20 02:41:58;;;;;;;44.90;20.13;;;6.90;99.90;;;;;;4937635;29;20203;-75
2023/03/20 02:44:39;;;;;;;37.60;19.23;;;6.80;99.90;;;;;;4938110;29;20201;-74
2023/03/20 02:47:19;;;;;;;41.13;21.00;;;6.80;99.90;;;;;;4937325;29;20372;-74
2023/03/20 02:49:59;;;;;;;40.03;20.00;;;6.80;99.90;;;;;;4953790;29;20209;-74
2023/03/20 02:52:42;;;;;;;40.63;20.10;;;6.80;99.90;;;;;;4953755;29;20213;-74
2023/03/20 02:55:32;;;;;;;39.97;19.77;;;6.80;99.90;;;;;;4953351;29;20228;-76
2023/03/20 02:58:21;;;;;;;41.77;19.90;;;6.70;99.90;;;;;;4937500;29;20221;-75
2023/03/20 03:00:57;;;;;;;40.00;19.30;;;6.80;99.90;;;;;;4937755;29;20198;-74
2023/03/20 03:03:59;;;;;;;41.47;20.23;;;6.70;99.90;;;;;;4937588;29;20305;-74
2023/03/20 03:06:30;;;;;;;38.40;19.43;;;6.70;99.90;;;;;;4952405;29;20234;-74
2023/03/20 03:09:20;;;;;;;41.13;19.90;;;6.60;99.90;;;;;;5009500;28;20692;-73
2023/03/20 03:11:54;;;;;;;41.13;20.73;;;6.60;99.90;;;;;;5053630;28;20206;-74
2023/03/20 03:14:41;;;;;;;42.23;20.53;;;6.60;99.90;;;;;;5036175;28;20189;-74
2023/03/20 03:17:11;;;;;;;38.97;20.43;;;6.50;99.90;;;;;;5035606;28;20205;-77
2023/03/20 03:19:42;;;;;;;40.87;21.47;;;6.50;99.90;;;;;;5035635;28;20210;-74
2023/03/20 03:22:11;;;;;;;42.37;21.40;;;6.40;99.90;;;;;;5035812;28;20191;-77
2023/03/20 03:24:43;;;;;;;45.07;21.00;;;6.30;99.90;;;;;;5035772;28;20237;-79
2023/03/20 03:27:18;;;;;;;42.23;21.03;;;6.30;99.90;;;;;;5035358;28;20230;-77
2023/03/20 03:29:54;;;;;;;44.27;21.80;;;6.20;99.90;;;;;;5035744;28;20584;-74
2023/03/20 03:32:26;;;;;;;43.60;21.47;;;6.10;99.90;;;;;;5053141;28;20190;-79
2023/03/20 03:34:54;;;;;;;41.53;20.87;;;6.00;99.90;;;;;;5035430;28;20913;-75
2023/03/20 03:37:46;;;;;;;45.40;22.03;;;6.10;99.90;;;;;;5028686;23;20236;-76
2023/03/20 03:40:35;;;;;;;39.07;21.30;;;6.00;99.90;;;;;;5015279;28;20297;-75
2023/03/20 03:43:12;;;;;;;41.67;21.70;;;6.00;99.90;;;;;;5015600;28;20206;-76
2023/03/20 03:45:48;;;;;;;45.53;21.40;;;5.90;99.90;;;;;;5033100;28;20209;-79
2023/03/20 03:48:21;;;;;;;44.13;22.30;;;5.80;99.90;;;;;;5033099;28;20200;-74
2023/03/20 03:50:56;;;;;;;41.07;20.93;;;5.90;99.90;;;;;;5016440;28;20202;-76
2023/03/20 03:53:29;;;;;;;45.63;21.47;;;5.80;99.90;;;;;;5037293;28;20255;-82
2023/03/20 03:56:00;;;;;;;44.70;21.20;;;5.90;99.90;;;;;;5043890;28;20218;-83
2023/03/20 03:58:32;;;;;;;44.27;21.90;;;5.90;99.90;;;;;;5025156;28;20207;-83
2023/03/20 04:01:01;;;;;;;47.80;21.80;;;5.90;99.90;;;;;;5015095;28;20294;-80
2023/03/20 04:03:32;;;;;;;44.80;21.67;;;5.80;99.90;;;;;;5015079;28;20303;-80
2023/03/20 04:06:01;;;;;;;46.10;21.70;;;5.80;99.90;;;;;;5014460;28;20199;-78
2023/03/20 04:08:28;;;;;;;45.50;21.70;;;5.80;99.90;;;;;;5045243;28;20316;-79
2023/03/20 04:10:55;;;;;;;42.60;21.67;;;5.90;99.90;;;;;;5034534;28;20535;-80
2023/03/20 04:13:22;;;;;;;43.00;20.90;;;5.90;99.90;;;;;;5052457;28;20194;-81
2023/03/20 04:16:15;;;;;;;42.53;21.27;;;5.90;99.90;;;;;;5037686;28;20208;-76
2023/03/20 04:19:02;;;;;;;46.13;22.20;;;5.80;99.90;;;;;;5038294;28;20198;-75
2023/03/20 04:21:49;;;;;;;44.23;21.07;;;5.80;99.90;;;;;;5051966;28;20194;-73
2023/03/20 04:24:27;;;;;;;45.03;22.63;;;5.90;99.90;;;;;;5034048;28;20209;-74
2023/03/20 04:26:55;;;;;;;45.80;22.23;;;5.90;99.90;;;;;;5018020;28;20313;-73
2023/03/20 04:29:22;;;;;;;50.00;22.10;;;5.80;99.90;;;;;;5034567;28;20194;-74
2023/03/20 04:31:49;;;;;;;44.60;21.80;;;5.90;99.90;;;;;;5034870;28;20264;-73
2023/03/20 04:34:16;;;;;;;47.97;22.03;;;5.90;99.90;;;;;;5052103;28;20187;-73
2023/03/20 04:36:43;;;;;;;42.50;21.33;;;5.90;99.90;;;;;;5033606;28;20241;-75
2023/03/20 04:39:10;;;;;;;41.87;21.90;;;5.90;99.90;;;;;;5034019;28;20648;-76
2023/03/20 04:41:37;;;;;;;39.17;21.60;;;5.90;99.90;;;;;;5033881;28;20213;-76
2023/03/20 04:44:04;;;;;;;46.10;21.97;;;5.90;99.90;;;;;;5052140;28;20190;-75
2023/03/20 04:46:31;;;;;;;50.93;23.13;;;5.90;99.90;;;;;;5033735;28;20226;-76
2023/03/20 04:48:58;;;;;;;41.37;21.47;;;5.90;99.90;;;;;;5033832;28;20510;-78
2023/03/20 04:51:25;;;;;;;44.47;22.50;;;5.80;99.90;;;;;;5033605;28;20194;-77
2023/03/20 04:53:51;;;;;;;44.23;22.07;;;5.80;99.90;;;;;;5034020;28;20206;-72
2023/03/20 04:56:18;;;;;;;45.50;21.73;;;5.80;99.90;;;;;;5033618;28;20394;-74
2023/03/20 04:58:45;;;;;;;44.27;22.00;;;5.80;99.90;;;;;;5033789;28;20301;-75
2023/03/20 05:01:12;;;;;;;44.47;22.00;;;5.70;99.90;;;;;;5033702;28;20278;-73
2023/03/20 05:03:39;;;;;;;48.67;21.10;;;5.70;99.90;;;;;;5033559;28;20218;-75
2023/03/20 05:06:06;;;;;;;42.87;21.87;;;5.70;99.90;;;;;;5051459;28;20194;-74
2023/03/20 05:08:33;;;;;;;43.63;21.70;;;5.60;99.90;;;;;;5033388;28;20688;-73
2023/03/20 05:11:00;;;;;;;46.30;22.43;;;5.60;99.90;;;;;;5051680;28;20293;-72
2023/03/20 05:13:27;;;;;;;47.90;22.67;;;5.50;99.90;;;;;;5017072;28;20186;-72
2023/03/20 05:15:55;;;;;;;42.70;22.03;;;5.60;99.90;;;;;;5033858;28;20198;-72
2023/03/20 05:18:21;;;;;;;54.53;22.50;;;5.60;99.90;;;;;;5033342;28;20199;-72
2023/03/20 05:20:50;;;;;;;44.60;22.03;;;5.60;99.90;;;;;;5033643;28;20293;-73
2023/03/20 05:23:16;;;;;;;49.23;22.90;;;5.70;99.90;;;;;;5033650;28;20201;-72
2023/03/20 05:25:44;;;;;;;45.87;22.30;;;5.70;99.90;;;;;;5051469;28;20201;-74
2023/03/20 05:28:10;;;;;;;45.13;21.90;;;5.50;99.90;;;;;;5032922;28;20229;-72
2023/03/20 05:30:37;;;;;;;41.67;21.97;;;5.50;99.90;;;;;;5033547;28;20220;-77
2023/03/20 05:33:04;;;;;;;45.13;22.37;;;5.50;99.90;;;;;;5051755;28;20256;-72
2023/03/20 05:35:31;;;;;;;46.93;22.60;;;5.50;99.90;;;;;;5033222;28;20184;-76
2023/03/20 05:37:58;;;;;;;45.93;21.07;;;5.60;99.90;;;;;;5033069;28;20293;-72
2023/03/20 05:40:25;;;;;;;47.00;22.43;;;5.60;99.90;;;;;;5033348;28;20199;-72
2023/03/20 05:42:51;;;;;;;53.00;22.83;;;5.70;99.90;;;;;;5033315;28;20643;-72
2023/03/20 05:45:18;;;;;;;47.77;23.27;;;5.80;99.90;;;;;;5033393;28;20188;-73
2023/03/20 05:47:45;;;;;;;44.57;22.80;;;5.80;99.90;;;;;;5032727;28;20226;-72
2023/03/20 05:50:12;;;;;;;48.20;22.50;;;5.80;99.90;;;;;;5033035;28;20247;-74
2023/03/20 05:52:39;;;;;;;45.03;21.87;;;5.90;99.90;;;;;;5033030;28;20565;-77
2023/03/20 05:55:06;;;;;;;43.17;21.43;;;5.90;99.90;;;;;;5050998;28;20652;-71
2023/03/20 05:57:33;;;;;;;46.40;21.67;;;6.10;99.90;;;;;;5033177;28;20202;-74
2023/03/20 06:00:00;;;;;;;43.67;21.50;;;6.20;99.90;;;;;;5035377;28;20666;-72
2023/03/20 06:02:26;;;;;;;41.57;20.47;;;6.30;99.90;;;;;;5036819;28;20212;-72
2023/03/20 06:04:57;;;;;;;38.40;19.97;;;6.40;99.90;;;;;;5036831;28;20237;-73
2023/03/20 06:07:45;;;;;;;40.20;20.00;;;6.40;99.90;;;;;;5036440;28;20226;-73
2023/03/20 06:10:19;;;;;;;39.20;19.37;;;6.50;99.90;;;;;;4938220;29;20202;-73
2023/03/20 06:12:46;;;;;;;41.07;20.17;;;6.70;99.90;;;;;;4954750;29;20234;-80
2023/03/20 06:15:13;;;;;;;40.03;18.30;;;6.90;99.90;;;;;;4938350;29;20304;-75
2023/03/20 06:17:40;;;;;;;39.50;19.50;;;7.00;99.90;;;;;;4922496;29;20210;-74
2023/03/20 06:20:08;;;;;;;37.70;19.03;;;7.10;99.90;;;;;;4938640;29;20200;-73
2023/03/20 06:22:35;;;;;;;40.03;19.43;;;7.20;99.90;;;;;;4953652;29;20213;-77
2023/03/20 06:25:02;;;;;;;37.20;19.20;;;7.40;99.90;;;;;;4938533;29;20197;-79
2023/03/20 06:27:30;;;;;;;38.83;19.13;;;7.50;99.90;;;;;;4937768;29;20327;-73
2023/03/20 06:29:56;;;;;;;41.37;19.80;;;7.70;99.90;;;;;;4954157;29;20209;-73
2023/03/20 06:32:24;;;;;;;38.90;19.00;;;7.80;99.90;;;;;;4953926;29;20195;-75
2023/03/20 06:34:51;;;;;;;41.27;19.80;;;8.00;99.90;;;;;;4953931;29;20198;-75
2023/03/20 06:37:18;;;;;;;39.80;19.67;;;8.00;99.90;;;;;;4937247;29;20242;-77
2023/03/20 06:39:45;;;;;;;37.70;19.60;;;8.10;99.90;;;;;;4937671;29;20305;-79
2023/03/20 06:42:12;;;;;;;41.27;19.63;;;8.20;99.90;;;;;;4937908;29;20205;-81
2023/03/20 06:44:42;;;;;;;41.60;20.03;;;8.20;99.90;;;;;;4937461;29;20206;-74
2023/03/20 06:47:09;;;;;;;42.77;21.53;;;8.30;99.90;;;;;;4970977;28;20225;-76
2023/03/20 06:49:36;;;;;;;41.90;21.50;;;8.50;99.90;;;;;;5034088;28;20201;-83
2023/03/20 06:52:05;;;;;;;47.27;22.10;;;8.50;99.90;;;;;;5000660;28;20226;-81
2023/03/20 06:54:32;;;;;;;44.00;22.37;;;8.50;99.90;;;;;;5034112;28;20211;-83
2023/03/20 06:56:59;;;;;;;42.07;22.37;;;8.70;99.90;;;;;;5016466;28;20622;-82
2023/03/20 06:59:26;;;;;;;43.70;22.37;;;8.70;99.90;;;;;;5034610;28;20713;-73
2023/03/20 07:01:53;;;;;;;41.93;22.43;;;8.80;99.90;;;;;;5015858;28;20184;-73
2023/03/20 07:04:19;;;;;;;45.33;23.33;;;8.90;99.90;;;;;;5016158;28;20200;-74
2023/03/20 07:06:46;;;;;;;45.80;23.10;;;9.00;99.90;;;;;;5015276;28;20210;-74
2023/03/20 07:09:16;;;;;;;48.53;24.70;;;9.00;99.90;;;;;;5015886;28;20615;-74
2023/03/20 07:11:43;;;;;;;44.13;23.83;;;9.00;99.90;;;;;;5015134;28;20207;-74
2023/03/20 07:14:11;;;;;;;48.33;23.73;;;9.10;99.90;;;;;;5032410;28;20207;-75
2023/03/20 07:16:38;;;;;;;51.33;24.87;;;9.00;99.90;;;;;;5033966;28;20201;-73
2023/03/20 07:19:05;;;;;;;47.50;24.27;;;9.10;99.90;;;;;;5018096;28;20194;-82
2023/03/20 07:21:32;;;;;;;46.83;23.73;;;9.20;99.90;;;;;;5029399;28;20199;-72
2023/03/20 07:24:06;;;;;;;47.23;23.50;;;9.20;99.90;;;;;;5032360;28;20199;-87
2023/03/20 07:26:33;;;;;;;49.13;25.13;;;9.50;99.90;;;;;;5011188;28;20200;-85
2023/03/20 07:29:00;;;;;;;47.30;24.17;;;9.60;99.90;;;;;;5013327;28;20230;-83
2023/03/20 07:31:28;;;;;;;52.33;24.33;;;9.80;99.90;;;;;;5014207;28;20730;-85
2023/03/20 07:33:55;;;;;;;49.27;24.53;;;9.70;99.90;;;;;;4996783;28;20200;-86
2023/03/20 07:36:22;;;;;;;49.87;24.87;;;9.80;99.90;;;;;;4995575;28;20188;-74
2023/03/20 07:38:49;;;;;;;50.00;25.30;;;10.00;99.90;;;;;;4996999;28;20231;-84
2023/03/20 07:41:17;;;;;;;52.50;25.53;;;10.10;99.90;;;;;;4995658;28;20204;-72
2023/03/20 07:43:44;;;;;;;50.60;25.50;;;10.20;99.90;;;;;;5012096;28;20207;-70
2023/03/20 07:46:11;;;;;;;50.87;25.70;;;10.30;99.90;;;;;;4995488;28;20215;-70
2023/03/20 07:48:38;;;;;;;47.53;24.30;;;10.50;99.90;;;;;;4995822;28;20235;-71
2023/03/20 07:51:06;;;;;;;47.20;23.63;;;10.80;99.90;;;;;;5012812;28;20196;-82
2023/03/20 07:53:32;;;;;;;45.03;23.20;;;11.20;99.90;;;;;;4995555;28;20211;-83
2023/03/20 07:56:00;;;;;;;48.73;23.87;;;11.40;99.90;;;;;;5013053;28;20531;-70
2023/03/20 07:58:26;;;;;;;45.37;22.87;;;11.60;99.90;;;;;;4995571;28;20294;-69
2023/03/20 08:00:56;;;;;;;45.60;23.03;;;11.90;99.90;;;;;;4994964;28;20239;-70
2023/03/20 08:03:23;;;;;;;44.77;23.50;;;12.20;99.90;;;;;;5011200;28;20215;-71
2023/03/20 08:05:50;;;;;;;42.50;22.43;;;12.40;99.90;;;;;;4995199;28;20642;-70
2023/03/20 08:08:17;;;;;;;44.37;22.40;;;12.60;99.90;;;;;;4994603;28;20318;-70
2023/03/20 08:10:44;;;;;;;46.00;22.67;;;12.80;99.90;;;;;;4995878;28;20287;-71
2023/03/20 08:13:11;;;;;;;48.73;22.60;;;13.00;99.90;;;;;;5001927;28;20196;-84
2023/03/20 08:15:38;;;;;;;44.10;22.80;;;13.10;99.90;;;;;;5006019;28;20206;-78
2023/03/20 08:18:05;;;;;;;43.83;21.37;;;13.30;99.90;;;;;;5009028;28;20192;-72
2023/03/20 08:20:32;;;;;;;42.07;22.90;;;13.60;99.90;;;;;;4995364;28;20228;-81
2023/03/20 08:22:59;;;;;;;47.93;23.47;;;13.70;99.90;;;;;;4994191;28;20200;-84
2023/03/20 08:25:28;;;;;;;43.20;22.30;;;13.70;99.90;;;;;;5012520;28;20196;-81
2023/03/20 08:27:55;;;;;;;42.30;21.93;;;13.80;99.90;;;;;;4994842;28;20228;-70
2023/03/20 08:30:21;;;;;;;42.07;21.43;;;14.30;99.90;;;;;;4994682;28;20211;-71
2023/03/20 08:32:48;;;;;;;41.87;21.73;;;14.70;99.90;;;;;;5011037;28;20202;-75
2023/03/20 08:35:15;;;;;;;43.13;19.90;;;15.10;99.90;;;;;;4994632;28;20556;-70
2023/03/20 08:37:59;;;;;;;35.20;18.47;;;15.40;99.90;;;;;;5011521;28;20242;-70
2023/03/20 08:40:26;;;;;;;39.47;20.20;;;15.80;99.40;;;;;;5012237;28;20314;-71
2023/03/20 08:42:53;;;;;;;44.50;21.83;;;15.80;97.60;;;;;;4994766;28;20219;-71
2023/03/20 08:45:20;;;;;;;39.00;19.77;;;15.70;98.20;;;;;;4994906;28;20227;-83
2023/03/20 08:47:47;;;;;;;42.33;21.23;;;16.30;97.00;;;;;;5011974;28;20211;-73
2023/03/20 08:50:15;;;;;;;47.47;23.27;;;16.40;95.30;;;;;;5012268;28;20188;-70
2023/03/20 08:52:42;;;;;;;37.50;21.20;;;16.50;95.30;;;;;;4996936;28;20199;-73
2023/03/20 08:55:11;;;;;;;41.33;22.30;;;16.90;93.90;;;;;;4994549;28;20207;-70
2023/03/20 08:57:38;;;;;;;37.93;20.93;;;17.20;93.20;;;;;;5012344;28;20192;-71
2023/03/20 09:00:07;;;;;;;43.50;20.47;;;17.40;91.50;;;;;;5012123;28;20192;-75
2023/03/20 09:02:34;;;;;;;33.30;17.57;;;17.80;90.60;;;;;;5012270;28;20663;-70
2023/03/20 09:05:02;;;;;;;34.47;16.90;;;17.90;82.50;;;;;;5011044;28;20198;-78
2023/03/20 09:07:29;;;;;;;37.57;17.13;;;17.80;82.70;;;;;;4994014;28;20224;-70
2023/03/20 09:09:55;;;;;;;32.83;17.10;;;17.50;82.80;;;;;;5011959;28;20196;-76
2023/03/20 09:12:23;;;;;;;30.33;17.30;;;17.30;82.70;;;;;;4993858;28;20207;-79
2023/03/20 09:14:49;;;;;;;31.43;16.53;;;17.60;83.70;;;;;;4994454;28;20200;-71
2023/03/20 09:17:16;;;;;;;33.70;17.50;;;17.80;81.20;;;;;;4994045;28;20255;-70
2023/03/20 09:19:43;;;;;;;34.60;17.17;;;17.60;81.00;;;;;;4994662;28;20579;-70
2023/03/20 09:22:16;;;;;;;34.43;17.37;;;17.40;82.10;;;;;;4993999;28;20193;-80
2023/03/20 09:24:44;;;;;;;34.70;17.03;;;17.30;82.70;;;;;;5011958;28;20230;-82
2023/03/20 09:27:15;;;;;;;35.07;17.00;;;17.10;83.60;;;;;;4993722;28;20196;-75
2023/03/20 09:29:42;;;;;;;32.97;17.50;;;17.20;84.00;;;;;;4994179;28;20204;-81
2023/03/20 09:32:11;;;;;;;32.40;17.33;;;17.40;82.70;;;;;;4994088;28;20192;-77
2023/03/20 09:34:39;;;;;;;31.40;16.50;;;17.90;83.00;;;;;;4995468;28;20199;-71
2023/03/20 09:37:06;;;;;;;31.63;17.00;;;18.30;80.50;;;;;;5019366;28;20223;-71
2023/03/20 09:39:34;;;;;;;32.67;16.00;;;18.80;78.70;;;;;;5017639;28;20199;-81
2023/03/20 09:42:27;;;;;;;29.87;15.63;;;18.90;76.00;;;;;;5035414;28;20195;-79
2023/03/20 09:45:18;;;;;;;30.27;16.17;;;19.30;74.40;;;;;;5017472;28;20585;-70
2023/03/20 09:48:00;;;;;;;28.47;15.07;;;19.80;72.10;;;;;;5034904;28;20207;-79
2023/03/20 09:50:34;;;;;;;27.53;15.10;;;19.80;69.80;;;;;;5001136;28;20203;-77
2023/03/20 09:53:15;;;;;;;27.77;14.50;;;19.80;68.90;;;;;;5018550;28;20203;-74
2023/03/20 09:55:44;;;;;;;28.77;14.50;;;20.00;69.00;;;;;;5017828;28;20199;-72
2023/03/20 09:58:23;;;;;;;25.23;14.00;;;20.20;68.60;;;;;;5017236;28;20222;-70
2023/03/20 10:00:51;;;;;;;23.00;13.37;;;20.60;67.60;;;;;;5017203;28;20291;-70
2023/03/20 10:03:23;;;;;;;26.53;13.23;;;20.60;66.10;;;;;;5017294;28;20649;-81
2023/03/20 10:06:03;;;;;;;26.30;14.83;;;21.00;65.00;;;;;;5017070;28;20637;-71
2023/03/20 10:08:36;;;;;;;25.33;14.23;;;20.50;63.90;;;;;;5016766;28;20219;-72
2023/03/20 10:11:09;;;;;;;24.37;13.93;;;20.60;66.60;;;;;;5034690;28;20703;-73
2023/03/20 10:13:51;;;;;;;26.70;14.90;;;21.00;66.00;;;;;;5034778;28;20226;-72
2023/03/20 10:16:41;;;;;;;24.13;14.43;;;21.80;64.00;;;;;;5016901;28;20226;-78
2023/03/20 10:19:28;;;;;;;24.17;14.13;;;21.40;60.60;;;;;;5033290;28;20200;-71
2023/03/20 10:22:10;;;;;;;24.13;14.00;;;20.50;62.70;;;;;;5033057;28;20202;-71
2023/03/20 10:25:12;;;;;;;26.07;14.03;;;20.10;65.80;;;;;;5016767;28;20199;-71
2023/03/20 10:27:45;;;;;;;23.90;13.63;;;20.00;65.40;;;;;;4934859;29;20210;-71
2023/03/20 10:30:37;;;;;;;25.97;14.57;;;19.50;65.90;;;;;;4935013;29;20239;-70
2023/03/20 10:33:31;;;;;;;26.57;13.80;;;19.00;67.90;;;;;;4934632;29;20206;-70
2023/03/20 10:36:17;;;;;;;26.17;13.83;;;18.70;69.60;;;;;;4918594;29;20199;-71
2023/03/20 10:39:02;;;;;;;25.50;13.50;;;18.60;71.00;;;;;;4934509;29;20231;-72
2023/03/20 10:41:35;;;;;;;29.00;14.27;;;18.50;71.10;;;;;;4934825;29;20222;-75
2023/03/20 10:44:03;;;;;;;26.47;14.53;;;18.30;71.90;;;;;;4934462;29;20221;-84
2023/03/20 10:46:51;;;;;;;29.13;15.20;;;18.30;71.40;;;;;;4917783;29;20293;-81
2023/03/20 10:49:29;;;;;;;29.23;16.07;;;18.00;73.80;;;;;;4918730;29;20225;-79
2023/03/20 10:52:08;;;;;;;31.87;16.07;;;17.60;74.20;;;;;;4934150;29;20574;-70
2023/03/20 10:54:44;;;;;;;31.00;16.07;;;17.50;75.10;;;;;;4934667;29;20203;-69
2023/03/20 10:57:21;;;;;;;33.97;16.30;;;18.00;75.30;;;;;;4918345;29;20301;-69
2023/03/20 10:59:50;;;;;;;34.80;18.57;;;18.40;73.60;;;;;;4934308;29;20210;-70
2023/03/20 11:02:20;;;;;;;39.13;18.70;;;18.00;75.50;;;;;;4941851;28;20246;-73
2023/03/20 11:04:47;;;;;;;37.30;18.37;;;17.40;78.00;;;;;;4996309;28;20283;-71
2023/03/20 11:07:34;;;;;;;34.77;18.10;;;17.80;77.70;;;;;;4996228;28;20247;-71
2023/03/20 11:10:04;;;;;;;36.60;18.67;;;17.60;78.20;;;;;;4996342;28;20197;-69
2023/03/20 11:12:33;;;;;;;39.10;20.40;;;18.00;79.20;;;;;;4995948;28;20200;-71
2023/03/20 11:15:11;;;;;;;39.73;20.87;;;17.90;79.00;;;;;;4996219;28;20196;-71
2023/03/20 11:17:38;;;;;;;44.43;21.10;;;18.10;80.00;;;;;;5005320;28;20207;-71
2023/03/20 11:20:05;;;;;;;41.53;22.13;;;18.00;81.30;;;;;;5014999;28;20198;-71
2023/03/20 11:22:33;;;;;;;44.30;21.80;;;18.50;79.80;;;;;;5012597;28;20202;-70
2023/03/20 11:25:01;;;;;;;46.43;22.23;;;18.50;79.60;;;;;;5018546;28;20198;-72
2023/03/20 11:27:33;;;;;;;46.37;23.33;;;18.20;79.20;;;;;;5015402;28;20262;-70
2023/03/20 11:30:06;;;;;;;41.30;22.30;;;17.90;80.50;;;;;;5015198;28;20282;-70
2023/03/20 11:32:38;;;;;;;40.90;21.70;;;17.70;81.60;;;;;;5015217;28;20203;-71
2023/03/20 11:35:17;;;;;;;43.00;21.30;;;17.60;81.70;;;;;;5015223;28;20191;-70
2023/03/20 11:37:47;;;;;;;41.43;21.60;;;17.60;82.40;;;;;;5014582;28;20282;-70
2023/03/20 11:40:29;;;;;;;39.37;21.47;;;17.50;82.40;;;;;;5015411;28;20207;-76
2023/03/20 11:43:11;;;;;;;41.63;20.97;;;17.40;83.40;;;;;;5015482;28;20258;-70
2023/03/20 11:45:44;;;;;;;40.20;20.50;;;17.20;84.60;;;;;;5032591;28;20201;-71
2023/03/20 11:48:20;;;;;;;40.63;20.27;;;17.00;85.30;;;;;;5014840;28;20219;-70
2023/03/20 11:51:05;;;;;;;37.07;18.60;;;17.30;85.50;;;;;;5032877;28;20187;-72
2023/03/20 11:53:53;;;;;;;33.87;18.03;;;17.70;83.60;;;;;;5015005;28;20199;-73
2023/03/20 11:56:22;;;;;;;34.87;18.00;;;18.00;80.40;;;;;;5014911;28;20208;-70
2023/03/20 11:59:16;;;;;;;32.93;17.40;;;18.00;80.00;;;;;;5014862;28;20199;-72
2023/03/20 12:01:47;;;;;;;31.97;17.03;;;18.60;77.80;;;;;;5015088;28;20238;-70
2023/03/20 12:04:24;;;;;;;33.27;17.80;;;18.70;77.20;;;;;;5014771;28;20258;-73
2023/03/20 12:07:13;;;;;;;38.07;19.90;;;18.60;77.70;;;;;;5014588;28;20235;-73
2023/03/20 12:10:00;;;;;;;35.90;19.47;;;18.10;79.40;;;;;;5014899;28;20203;-77
2023/03/20 12:12:57;;;;;;;36.93;19.30;;;17.40;83.00;;;;;;5014685;28;20226;-74
2023/03/20 12:15:37;;;;;;;40.80;20.87;;;17.00;86.30;;;;;;5014019;28;20199;-72
2023/03/20 12:18:10;;;;;;;41.87;21.43;;;16.70;89.60;;;;;;5014695;28;20211;-71
2023/03/20 12:20:46;;;;;;;38.73;20.27;;;16.70;89.90;;;;;;5014005;28;20200;-71
2023/03/20 12:23:30;;;;;;;41.83;21.60;;;17.00;89.90;;;;;;5030974;28;20253;-73
2023/03/20 12:26:13;;;;;;;39.03;20.87;;;16.70;90.60;;;;;;5014430;28;20693;-72
2023/03/20 12:29:04;;;;;;;38.63;21.47;;;16.60;90.60;;;;;;5014332;28;20211;-73
2023/03/20 12:31:45;;;;;;;39.60;21.33;;;16.70;90.80;;;;;;5014248;28;20187;-71
2023/03/20 12:34:19;;;;;;;37.17;19.17;;;16.40;91.70;;;;;;5014270;28;20209;-71
2023/03/20 12:36:49;;;;;;;38.77;18.87;;;16.40;91.20;;;;;;5033316;28;20191;-72
2023/03/20 12:39:19;;;;;;;35.97;18.73;;;16.50;90.90;;;;;;5051570;28;20548;-72
2023/03/20 12:42:06;;;;;;;37.67;19.43;;;16.70;91.30;;;;;;5051973;28;20194;-70
2023/03/20 12:44:38;;;;;;;35.20;19.57;;;16.40;90.70;;;;;;5051838;28;20216;-73
2023/03/20 12:47:31;;;;;;;35.20;18.97;;;16.00;91.20;;;;;;5051264;28;20543;-72
2023/03/20 12:49:59;;;;;;;32.87;17.77;;;15.80;91.40;;;;;;5051468;28;20421;-71
2023/03/20 12:52:50;;;;;;;32.77;17.37;;;15.60;91.40;;;;;;5017695;28;20213;-73
2023/03/20 12:55:30;;;;;;;32.50;17.07;;;15.40;91.90;;;;;;5033844;28;20209;-74
2023/03/20 12:58:16;;;;;;;34.10;18.23;;;15.20;92.60;;;;;;5052016;28;20285;-76
2023/03/20 13:01:06;;;;;;;35.63;17.73;;;15.20;92.90;;;;;;5033858;28;20665;-74
2023/03/20 13:04:05;;;;;;;34.40;18.53;;;15.30;93.00;;;;;;5033625;28;20311;-75